Time;durP1;ratioP1;P1;durP2;ratioP2;P2;SDS_P1;SDS_P2;PMS_P1;PMS_P2;Temp;Humidity;BMP_temperature;BMP_pressure;BME280_temperature;BME280_humidity;BME280_pressure;Samples;Min_cycle;Max_cycle;Signal;HPM_P1;HPM_P2
2022/04/13 00:00:28;;;;;;;;;;;;;;;12.61;57.40;96163.75;4894656;29;19963;-74
2022/04/13 00:02:55;;;;;;;;;;;;;;;12.59;57.13;96154.25;4887089;29;19957;-74
2022/04/13 00:05:22;;;;;;;;;;;;;;;12.59;57.31;96156.88;4888818;29;19962;-74
2022/04/13 00:07:47;;;;;;;;;;;;;;;12.58;57.73;96162.38;4890308;29;20000;-74
2022/04/13 00:10:14;;;;;;;;;;;;;;;12.58;57.48;96154.50;4890336;29;20423;-74
2022/04/13 00:12:40;;;;;;;;;;;;;;;12.56;57.76;96157.34;4893608;29;19954;-74
2022/04/13 00:15:06;;;;;;;;;;;;;;;12.54;57.89;96156.78;4888781;29;19982;-74
2022/04/13 00:17:32;;;;;;;;;;;;;;;12.54;58.18;96158.63;4894230;29;19969;-74
2022/04/13 00:19:58;;;;;;;;;;;;;;;12.51;58.76;96152.00;4884972;29;20363;-74
2022/04/13 00:22:24;;;;;;;;;;;;;;;12.47;58.32;96156.13;4889934;29;20411;-74
2022/04/13 00:24:50;;;;;;;;;;;;;;;12.45;58.44;96163.50;4888987;29;19958;-73
2022/04/13 00:27:16;;;;;;;;;;;;;;;12.41;58.45;96164.16;4892584;29;20016;-74
2022/04/13 00:29:42;;;;;;;;;;;;;;;12.40;58.20;96166.00;4870974;29;20406;-74
2022/04/13 00:32:08;;;;;;;;;;;;;;;12.38;58.80;96158.34;4880707;29;19968;-73
2022/04/13 00:34:34;;;;;;;;;;;;;;;12.37;58.72;96164.66;4892972;29;19973;-73
2022/04/13 00:37:01;;;;;;;;;;;;;;;12.34;58.55;96162.47;4886931;29;19966;-73
2022/04/13 00:39:27;;;;;;;;;;;;;;;12.32;58.76;96167.19;4873361;29;19968;-73
2022/04/13 00:42:01;;;;;;;;;;;;;;;12.30;58.59;96163.19;4889179;29;19966;-72
2022/04/13 00:44:28;;;;;;;;;;;;;;;12.27;58.85;96174.19;4870434;29;19965;-73
2022/04/13 00:46:55;;;;;;;;;;;;;;;12.25;59.03;96168.38;4898227;29;20352;-73
2022/04/13 00:49:20;;;;;;;;;;;;;;;12.22;59.07;96168.81;4857190;29;19957;-73
2022/04/13 00:51:46;;;;;;;;;;;;;;;12.18;59.09;96164.06;4892344;29;19956;-73
2022/04/13 00:54:13;;;;;;;;;;;;;;;12.16;59.53;96170.59;4885119;29;20430;-73
2022/04/13 00:56:40;;;;;;;;;;;;;;;12.12;59.25;96172.88;4895225;29;19963;-73
2022/04/13 00:59:10;;;;;;;;;;;;;;;12.10;59.39;96179.41;4890836;29;19961;-73
2022/04/13 01:01:42;;;;;;;;;;;;;;;12.06;59.29;96173.00;4888800;29;19965;-73
2022/04/13 01:04:11;;;;;;;;;;;;;;;12.04;59.72;96175.06;4885214;29;19959;-73
2022/04/13 01:06:37;;;;;;;;;;;;;;;12.00;60.53;96179.19;4887057;29;19986;-73
2022/04/13 01:09:03;;;;;;;;;;;;;;;11.94;60.07;96173.03;4890966;29;19963;-73
2022/04/13 01:11:29;;;;;;;;;;;;;;;11.90;60.18;96177.16;4875725;29;20445;-73
2022/04/13 01:13:57;;;;;;;;;;;;;;;11.87;60.37;96177.59;4895495;29;19963;-73
2022/04/13 01:16:24;;;;;;;;;;;;;;;11.84;60.37;96176.22;4893035;29;20018;-74
2022/04/13 01:18:51;;;;;;;;;;;;;;;11.82;60.42;96183.53;4893185;29;19951;-74
2022/04/13 01:21:19;;;;;;;;;;;;;;;11.78;60.52;96180.59;4889491;29;19946;-73
2022/04/13 01:23:45;;;;;;;;;;;;;;;11.76;60.93;96181.84;4902522;29;19954;-73
2022/04/13 01:26:12;;;;;;;;;;;;;;;11.74;60.29;96181.28;4883758;29;19964;-73
2022/04/13 01:28:38;;;;;;;;;;;;;;;11.72;60.22;96172.84;4883742;29;19955;-73
2022/04/13 01:31:05;;;;;;;;;;;;;;;11.69;60.42;96183.78;4895322;29;20436;-72
2022/04/13 01:33:31;;;;;;;;;;;;;;;11.66;60.30;96186.91;4884512;29;19953;-73
2022/04/13 01:36:00;;;;;;;;;;;;;;;11.62;60.71;96188.38;4898597;29;19984;-73
2022/04/13 01:38:28;;;;;;;;;;;;;;;11.57;60.63;96183.84;4889528;29;19962;-73
2022/04/13 01:40:54;;;;;;;;;;;;;;;11.56;60.85;96182.22;4881690;29;19958;-72
2022/04/13 01:43:20;;;;;;;;;;;;;;;11.53;60.79;96191.34;4893991;29;20368;-72
2022/04/13 01:45:46;;;;;;;;;;;;;;;11.52;61.10;96186.31;4895329;29;19963;-74
2022/04/13 01:48:12;;;;;;;;;;;;;;;11.51;61.20;96195.25;4883917;29;20440;-74
2022/04/13 01:50:38;;;;;;;;;;;;;;;11.50;60.76;96197.06;4894941;29;19967;-74
2022/04/13 01:53:03;;;;;;;;;;;;;;;11.48;60.84;96195.69;4876593;29;19988;-74
2022/04/13 01:55:29;;;;;;;;;;;;;;;11.46;62.05;96203.00;4893070;29;19966;-74
2022/04/13 01:57:55;;;;;;;;;;;;;;;11.42;61.68;96192.16;4893514;29;19958;-74
2022/04/13 02:00:21;;;;;;;;;;;;;;;11.39;61.86;96195.25;4886399;29;19965;-73
2022/04/13 02:02:47;;;;;;;;;;;;;;;11.35;62.34;96194.09;4891955;29;20028;-74
2022/04/13 02:05:13;;;;;;;;;;;;;;;11.31;62.28;96199.00;4895173;29;19992;-74
2022/04/13 02:07:59;;;;;;;;;;;;;;;11.29;62.16;96202.88;4881205;29;19979;-74
2022/04/13 02:10:27;;;;;;;;;;;;;;;11.25;62.63;96205.16;4873514;29;20285;-74
2022/04/13 02:12:53;;;;;;;;;;;;;;;11.24;62.24;96200.16;4869971;29;19965;-74
2022/04/13 02:15:19;;;;;;;;;;;;;;;11.22;62.44;96210.88;4874519;29;19973;-74
2022/04/13 02:17:45;;;;;;;;;;;;;;;11.19;62.94;96206.06;4874458;29;20337;-74
2022/04/13 02:20:11;;;;;;;;;;;;;;;11.16;62.98;96211.78;4872766;29;19954;-74
2022/04/13 02:22:37;;;;;;;;;;;;;;;11.13;62.46;96210.41;4873614;29;19951;-74
2022/04/13 02:25:05;;;;;;;;;;;;;;;11.11;62.72;96203.81;4874358;29;20436;-74
2022/04/13 02:27:45;;;;;;;;;;;;;;;11.05;62.97;96208.13;4871330;29;19954;-74
2022/04/13 02:30:11;;;;;;;;;;;;;;;11.01;63.31;96206.97;4872429;29;19953;-74
2022/04/13 02:32:43;;;;;;;;;;;;;;;10.96;63.13;96210.28;4876231;29;20402;-74
2022/04/13 02:35:09;;;;;;;;;;;;;;;10.93;63.21;96202.06;4874054;29;19972;-74
2022/04/13 02:37:35;;;;;;;;;;;;;;;10.92;62.96;96203.09;4874137;29;20322;-74
2022/04/13 02:40:01;;;;;;;;;;;;;;;10.88;63.57;96205.38;4869051;29;19969;-75
2022/04/13 02:42:34;;;;;;;;;;;;;;;10.86;63.82;96209.25;4873178;29;19962;-74
2022/04/13 02:45:00;;;;;;;;;;;;;;;10.82;63.76;96201.00;4872382;29;19954;-74
2022/04/13 02:47:26;;;;;;;;;;;;;;;10.80;63.89;96208.31;4876050;29;19965;-74
2022/04/13 02:49:54;;;;;;;;;;;;;;;10.79;63.82;96211.94;4868835;29;19960;-73
2022/04/13 02:52:20;;;;;;;;;;;;;;;10.75;64.25;96209.00;4871627;29;20051;-73
2022/04/13 02:54:46;;;;;;;;;;;;;;;10.73;64.06;96212.84;4875385;29;19968;-74
2022/04/13 02:57:12;;;;;;;;;;;;;;;10.70;64.61;96213.28;4874282;29;20430;-74
2022/04/13 02:59:38;;;;;;;;;;;;;;;10.66;64.25;96212.13;4867655;29;19961;-74
2022/04/13 03:02:04;;;;;;;;;;;;;;;10.61;64.46;96212.81;4873799;29;20019;-72
2022/04/13 03:04:32;;;;;;;;;;;;;;;10.59;64.68;96219.31;4872703;29;19970;-74
2022/04/13 03:06:58;;;;;;;;;;;;;;;10.56;64.83;96226.59;4881897;29;19986;-72
2022/04/13 03:09:24;;;;;;;;;;;;;;;10.53;65.21;96219.16;4888730;29;19965;-74
2022/04/13 03:11:50;;;;;;;;;;;;;;;10.51;65.92;96225.66;4887275;29;19961;-73
2022/04/13 03:14:16;;;;;;;;;;;;;;;10.50;65.94;96218.84;4883372;29;19983;-74
2022/04/13 03:16:42;;;;;;;;;;;;;;;10.49;65.89;96215.38;4878822;29;19986;-73
2022/04/13 03:19:08;;;;;;;;;;;;;;;10.47;65.80;96212.19;4881999;29;19965;-74
2022/04/13 03:21:34;;;;;;;;;;;;;;;10.46;65.56;96217.69;4893376;29;19964;-73
2022/04/13 03:24:00;;;;;;;;;;;;;;;10.43;65.59;96215.47;4891699;29;19957;-74
2022/04/13 03:26:26;;;;;;;;;;;;;;;10.39;65.58;96212.50;4898017;29;20403;-74
2022/04/13 03:28:52;;;;;;;;;;;;;;;10.36;65.22;96213.75;4892604;29;19963;-74
2022/04/13 03:31:17;;;;;;;;;;;;;;;10.32;65.22;96214.41;4885877;29;19964;-73
2022/04/13 03:33:43;;;;;;;;;;;;;;;10.28;65.35;96223.72;4884906;29;19964;-78
2022/04/13 03:36:21;;;;;;;;;;;;;;;10.21;65.36;96213.31;4868458;29;19975;-74
2022/04/13 03:38:46;;;;;;;;;;;;;;;10.19;65.44;96222.44;4892561;29;19959;-76
2022/04/13 03:41:12;;;;;;;;;;;;;;;10.15;66.10;96224.69;4890216;29;19999;-74
2022/04/13 03:43:38;;;;;;;;;;;;;;;10.11;65.86;96226.94;4897622;29;19965;-73
2022/04/13 03:46:04;;;;;;;;;;;;;;;10.08;65.71;96230.00;4890823;29;19952;-76
2022/04/13 03:48:30;;;;;;;;;;;;;;;10.04;65.84;96223.59;4889544;29;19965;-74
2022/04/13 03:50:57;;;;;;;;;;;;;;;10.00;65.80;96221.66;4890068;29;20056;-74
2022/04/13 03:53:23;;;;;;;;;;;;;;;9.97;66.09;96228.09;4893418;29;19961;-74
2022/04/13 03:55:49;;;;;;;;;;;;;;;9.93;66.40;96232.16;4891994;29;19970;-74
2022/04/13 03:58:15;;;;;;;;;;;;;;;9.88;66.18;96226.81;4872728;29;20014;-73
2022/04/13 04:00:41;;;;;;;;;;;;;;;9.85;66.01;96235.06;4886572;29;19960;-74
2022/04/13 04:03:07;;;;;;;;;;;;;;;9.80;66.14;96233.13;4892132;29;20297;-74
2022/04/13 04:05:33;;;;;;;;;;;;;;;9.78;66.55;96240.41;4889299;29;19964;-74
2022/04/13 04:07:59;;;;;;;;;;;;;;;9.73;67.00;96243.66;4888250;29;19989;-74
2022/04/13 04:10:24;;;;;;;;;;;;;;;9.69;66.64;96244.31;4888183;29;20378;-74
2022/04/13 04:12:50;;;;;;;;;;;;;;;9.65;66.62;96243.16;4894086;29;20011;-73
2022/04/13 04:15:16;;;;;;;;;;;;;;;9.60;66.54;96241.19;4888695;29;19973;-74
2022/04/13 04:17:42;;;;;;;;;;;;;;;9.57;66.73;96243.44;4889886;29;20346;-74
2022/04/13 04:20:09;;;;;;;;;;;;;;;9.53;66.56;96240.44;4892427;29;19995;-74
2022/04/13 04:22:35;;;;;;;;;;;;;;;9.50;66.54;96238.25;4890903;29;19954;-73
2022/04/13 04:25:05;;;;;;;;;;;;;;;9.47;66.90;96246.53;4888652;29;19972;-73
2022/04/13 04:27:30;;;;;;;;;;;;;;;9.46;67.03;96250.97;4891178;29;19961;-73
2022/04/13 04:29:57;;;;;;;;;;;;;;;9.45;67.45;96256.41;4889886;29;19955;-72
2022/04/13 04:32:23;;;;;;;;;;;;;;;9.42;67.50;96260.28;4891909;29;19961;-74
2022/04/13 04:34:48;;;;;;;;;;;;;;;9.41;67.65;96257.88;4883082;29;20415;-74
2022/04/13 04:37:14;;;;;;;;;;;;;;;9.38;67.64;96260.91;4887216;29;19970;-72
2022/04/13 04:39:40;;;;;;;;;;;;;;;9.33;67.69;96262.38;4888991;29;19965;-73
2022/04/13 04:42:06;;;;;;;;;;;;;;;9.30;67.46;96256.75;4889494;29;19970;-73
2022/04/13 04:44:32;;;;;;;;;;;;;;;9.26;67.65;96251.16;4889050;29;20040;-74
2022/04/13 04:46:58;;;;;;;;;;;;;;;9.23;67.67;96256.00;4887374;29;19958;-73
2022/04/13 04:49:24;;;;;;;;;;;;;;;9.18;68.18;96254.03;4898796;29;19958;-73
2022/04/13 04:51:50;;;;;;;;;;;;;;;9.18;68.35;96248.00;4885882;29;19963;-73
2022/04/13 04:54:16;;;;;;;;;;;;;;;9.16;68.15;96248.22;4889471;29;19966;-73
2022/04/13 04:56:41;;;;;;;;;;;;;;;9.18;68.76;96250.63;4890110;29;19975;-72
2022/04/13 04:59:07;;;;;;;;;;;;;;;9.21;69.09;96248.38;4892493;29;20049;-72
2022/04/13 05:01:33;;;;;;;;;;;;;;;9.25;69.20;96246.94;4882885;29;20386;-71
2022/04/13 05:04:12;;;;;;;;;;;;;;;9.28;69.70;96249.13;4885955;29;19966;-73
2022/04/13 05:06:38;;;;;;;;;;;;;;;9.32;68.98;96246.88;4884541;29;19981;-73
2022/04/13 05:09:04;;;;;;;;;;;;;;;9.39;69.33;96262.53;4889951;29;19978;-72
2022/04/13 05:11:30;;;;;;;;;;;;;;;9.44;69.49;96249.59;4887581;29;20072;-72
2022/04/13 05:13:56;;;;;;;;;;;;;;;9.50;70.42;96259.22;4887732;29;20027;-72
2022/04/13 05:16:22;;;;;;;;;;;;;;;9.59;69.52;96255.28;4891961;29;19982;-72
2022/04/13 05:18:48;;;;;;;;;;;;;;;9.67;69.48;96255.00;4885021;29;19958;-72
2022/04/13 05:21:14;;;;;;;;;;;;;;;9.77;69.18;96261.59;4887591;29;19957;-73
2022/04/13 05:23:43;;;;;;;;;;;;;;;9.86;69.02;96261.06;4895516;29;20329;-73
2022/04/13 05:26:10;;;;;;;;;;;;;;;9.94;69.04;96266.03;4880025;29;19961;-74
2022/04/13 05:28:36;;;;;;;;;;;;;;;10.05;69.24;96264.50;4894334;29;19950;-73
2022/04/13 05:31:01;;;;;;;;;;;;;;;10.16;68.94;96268.19;4892106;29;19971;-73
2022/04/13 05:33:28;;;;;;;;;;;;;;;10.28;68.60;96271.69;4887577;29;20450;-73
2022/04/13 05:35:54;;;;;;;;;;;;;;;10.43;68.67;96278.41;4888530;29;20358;-73
2022/04/13 05:38:20;;;;;;;;;;;;;;;10.54;67.99;96272.41;4888805;29;19961;-73
2022/04/13 05:40:46;;;;;;;;;;;;;;;10.68;68.42;96284.31;4875994;29;20337;-73
2022/04/13 05:43:11;;;;;;;;;;;;;;;10.82;68.51;96284.16;4888601;29;19968;-73
2022/04/13 05:45:37;;;;;;;;;;;;;;;10.95;67.85;96282.13;4872445;29;19967;-73
2022/04/13 05:48:05;;;;;;;;;;;;;;;11.12;67.41;96282.28;4884564;29;19951;-73
2022/04/13 05:50:31;;;;;;;;;;;;;;;11.30;67.21;96278.00;4889669;29;20300;-74
2022/04/13 05:52:56;;;;;;;;;;;;;;;11.59;68.90;96286.81;4887719;29;20041;-75
2022/04/13 05:55:22;;;;;;;;;;;;;;;11.95;67.90;96275.31;4872541;29;19982;-74
2022/04/13 05:57:48;;;;;;;;;;;;;;;12.31;65.79;96267.34;4891469;29;19972;-74
2022/04/13 06:00:14;;;;;;;;;;;;;;;12.59;63.78;96248.94;4891281;29;20400;-73
2022/04/13 06:02:44;;;;;;;;;;;;;;;12.73;62.36;96240.78;4896182;29;19968;-74
2022/04/13 06:05:11;;;;;;;;;;;;;;;12.77;62.25;96244.53;4892281;29;19965;-74
2022/04/13 06:07:37;;;;;;;;;;;;;;;12.74;61.68;96243.16;4890370;29;20012;-74
2022/04/13 06:10:04;;;;;;;;;;;;;;;12.77;61.79;96245.31;4894655;29;19953;-74
2022/04/13 06:12:30;;;;;;;;;;;;;;;12.83;61.91;96254.13;4897156;29;20414;-74
2022/04/13 06:15:02;;;;;;;;;;;;;;;12.90;61.85;96251.34;4889600;29;19969;-73
2022/04/13 06:17:28;;;;;;;;;;;;;;;12.98;61.97;96254.38;4889807;29;19962;-73
2022/04/13 06:19:54;;;;;;;;;;;;;;;13.11;63.11;96257.75;4891898;29;19963;-73
2022/04/13 06:22:20;;;;;;;;;;;;;;;13.38;62.62;96265.84;4891020;29;19997;-74
2022/04/13 06:24:51;;;;;;;;;;;;;;;13.62;61.23;96257.75;4887080;29;19959;-73
2022/04/13 06:27:17;;;;;;;;;;;;;;;13.81;60.83;96253.81;4885572;29;19957;-73
2022/04/13 06:29:43;;;;;;;;;;;;;;;13.96;60.40;96250.56;4890701;29;19958;-73
2022/04/13 06:32:09;;;;;;;;;;;;;;;14.09;59.54;96244.97;4889532;29;19963;-73
2022/04/13 06:34:35;;;;;;;;;;;;;;;14.17;58.67;96234.00;4890910;29;19959;-74
2022/04/13 06:37:01;;;;;;;;;;;;;;;14.34;59.24;96254.19;4881967;29;19986;-74
2022/04/13 06:39:26;;;;;;;;;;;;;;;14.60;58.99;96240.28;4874855;29;19973;-74
2022/04/13 06:41:52;;;;;;;;;;;;;;;14.79;56.79;96224.09;4890899;29;19995;-73
2022/04/13 06:44:18;;;;;;;;;;;;;;;14.86;55.15;96205.41;4890350;29;20029;-74
2022/04/13 06:46:44;;;;;;;;;;;;;;;14.90;55.51;96217.06;4890349;29;19963;-73
2022/04/13 06:49:10;;;;;;;;;;;;;;;15.03;55.63;96227.22;4896049;29;19961;-73
2022/04/13 06:51:36;;;;;;;;;;;;;;;15.19;54.86;96226.28;4887931;29;20009;-74
2022/04/13 06:54:02;;;;;;;;;;;;;;;15.35;54.71;96236.97;4888841;29;19968;-74
2022/04/13 06:56:27;;;;;;;;;;;;;;;15.37;54.95;96245.44;4897742;29;19976;-74
2022/04/13 06:58:53;;;;;;;;;;;;;;;15.40;54.43;96245.75;4892345;29;20002;-74
2022/04/13 07:01:19;;;;;;;;;;;;;;;15.42;55.50;96256.84;4887556;29;20367;-74
2022/04/13 07:03:45;;;;;;;;;;;;;;;15.42;55.68;96256.06;4869018;29;20400;-73
2022/04/13 07:06:11;;;;;;;;;;;;;;;15.42;55.53;96261.34;4870122;29;20079;-74
2022/04/13 07:08:37;;;;;;;;;;;;;;;15.45;55.05;96252.13;4891988;29;20005;-73
2022/04/13 07:11:03;;;;;;;;;;;;;;;15.39;54.15;96245.97;4896247;29;19983;-74
2022/04/13 07:13:29;;;;;;;;;;;;;;;15.31;56.47;96265.75;4889661;29;19958;-74
2022/04/13 07:15:55;;;;;;;;;;;;;;;15.31;58.81;96286.13;4885683;29;20002;-74
2022/04/13 07:18:21;;;;;;;;;;;;;;;15.32;58.43;96285.84;4888060;29;19963;-74
2022/04/13 07:20:46;;;;;;;;;;;;;;;15.40;58.50;96282.72;4890139;29;19962;-74
2022/04/13 07:23:12;;;;;;;;;;;;;;;15.60;58.84;96282.09;4893572;29;19963;-74
2022/04/13 07:25:38;;;;;;;;;;;;;;;15.74;59.63;96300.97;4891817;29;20411;-73
2022/04/13 07:28:04;;;;;;;;;;;;;;;16.01;56.79;96274.44;4885015;29;20428;-75
2022/04/13 07:30:31;;;;;;;;;;;;;;;16.23;54.90;96254.97;4896949;29;19957;-74
2022/04/13 07:33:01;;;;;;;;;;;;;;;16.35;55.80;96260.03;4888476;29;19956;-74
2022/04/13 07:35:28;;;;;;;;;;;;;;;16.53;55.32;96262.25;4887998;29;19957;-74
2022/04/13 07:37:55;;;;;;;;;;;;;;;16.73;53.75;96260.69;4874841;29;19974;-74
2022/04/13 07:40:21;;;;;;;;;;;;;;;16.93;53.83;96257.34;4893294;29;19961;-74
2022/04/13 07:42:47;;;;;;;;;;;;;;;17.10;52.29;96247.28;4884882;29;20020;-74
2022/04/13 07:45:13;;;;;;;;;;;;;;;17.20;52.79;96249.94;4890850;29;20001;-74
2022/04/13 07:47:39;;;;;;;;;;;;;;;17.39;52.48;96250.19;4893285;29;19978;-74
2022/04/13 07:50:06;;;;;;;;;;;;;;;17.42;50.32;96231.09;4893146;29;20348;-73
2022/04/13 07:52:34;;;;;;;;;;;;;;;17.53;51.66;96249.66;4889916;29;19952;-74
2022/04/13 07:55:00;;;;;;;;;;;;;;;17.74;51.05;96250.41;4889829;29;19952;-74
2022/04/13 07:57:25;;;;;;;;;;;;;;;17.90;48.25;96236.09;4884924;29;20023;-74
2022/04/13 07:59:51;;;;;;;;;;;;;;;17.66;48.26;96246.47;4890977;29;19956;-74
2022/04/13 08:02:20;;;;;;;;;;;;;;;17.37;49.94;96247.00;4898172;29;19998;-74
2022/04/13 08:04:46;;;;;;;;;;;;;;;17.36;50.51;96263.19;4888294;29;20440;-74
2022/04/13 08:07:13;;;;;;;;;;;;;;;17.12;50.44;96269.00;4892078;29;20063;-74
2022/04/13 08:09:54;;;;;;;;;;;;;;;17.04;52.22;96283.56;4893074;29;19961;-74
2022/04/13 08:12:20;;;;;;;;;;;;;;;17.25;52.15;96272.97;4887000;29;20053;-74
2022/04/13 08:15:09;;;;;;;;;;;;;;;17.36;50.79;96271.13;4883649;29;19973;-74
2022/04/13 08:17:35;;;;;;;;;;;;;;;17.40;51.40;96266.88;4891200;29;19977;-75
2022/04/13 08:20:01;;;;;;;;;;;;;;;17.50;50.10;96266.09;4892696;29;20012;-75
2022/04/13 08:22:28;;;;;;;;;;;;;;;17.64;49.98;96265.28;4886329;29;19955;-75
2022/04/13 08:24:54;;;;;;;;;;;;;;;17.89;49.13;96261.03;4886745;29;19958;-75
2022/04/13 08:27:20;;;;;;;;;;;;;;;18.07;47.81;96264.97;4891485;29;19955;-75
2022/04/13 08:29:46;;;;;;;;;;;;;;;18.25;48.53;96268.91;4888579;29;20027;-75
2022/04/13 08:32:15;;;;;;;;;;;;;;;18.48;49.53;96290.56;4887274;29;19956;-74
2022/04/13 08:34:41;;;;;;;;;;;;;;;18.57;47.49;96278.31;4891701;29;19957;-74
2022/04/13 08:37:07;;;;;;;;;;;;;;;18.73;46.75;96268.41;4889623;29;20074;-74
2022/04/13 08:39:33;;;;;;;;;;;;;;;18.92;46.41;96281.88;4888031;29;19960;-75
2022/04/13 08:42:01;;;;;;;;;;;;;;;19.03;47.65;96297.50;4889126;29;20017;-74
2022/04/13 08:44:34;;;;;;;;;;;;;;;18.95;44.51;96279.47;4866168;29;19965;-75
2022/04/13 08:47:06;;;;;;;;;;;;;;;18.91;45.62;96281.09;4888459;29;20501;-75
2022/04/13 08:49:37;;;;;;;;;;;;;;;18.92;45.46;96284.53;4892543;29;19958;-75
2022/04/13 08:52:04;;;;;;;;;;;;;;;18.99;46.17;96283.16;4887439;29;19955;-75
2022/04/13 08:54:40;;;;;;;;;;;;;;;19.16;46.19;96287.31;4870838;29;20402;-75
2022/04/13 08:57:07;;;;;;;;;;;;;;;19.34;45.50;96286.66;4871028;29;19975;-75
2022/04/13 08:59:51;;;;;;;;;;;;;;;19.37;43.66;96278.13;4893078;29;19955;-75
2022/04/13 09:02:27;;;;;;;;;;;;;;;19.34;45.52;96291.97;4890189;29;19959;-75
2022/04/13 09:04:56;;;;;;;;;;;;;;;19.53;45.45;96302.72;4887130;29;19962;-75
2022/04/13 09:07:23;;;;;;;;;;;;;;;19.65;44.10;96286.38;4884841;29;19984;-75
2022/04/13 09:09:51;;;;;;;;;;;;;;;19.77;45.00;96278.88;4891078;29;19972;-75
2022/04/13 09:12:18;;;;;;;;;;;;;;;19.99;44.29;96275.72;4893093;29;19968;-75
2022/04/13 09:14:44;;;;;;;;;;;;;;;20.15;43.90;96270.25;4887839;29;20443;-75
2022/04/13 09:17:10;;;;;;;;;;;;;;;20.20;42.78;96272.84;4886574;29;19973;-75
2022/04/13 09:19:37;;;;;;;;;;;;;;;20.15;44.21;96272.91;4889546;29;20432;-75
2022/04/13 09:22:03;;;;;;;;;;;;;;;20.05;42.55;96269.28;4888350;29;19960;-75
2022/04/13 09:24:31;;;;;;;;;;;;;;;20.01;44.13;96281.56;4892867;29;20032;-75
2022/04/13 09:27:01;;;;;;;;;;;;;;;20.08;45.12;96284.69;4883723;29;19961;-76
2022/04/13 09:29:27;;;;;;;;;;;;;;;20.34;44.71;96283.59;4884458;29;19961;-75
2022/04/13 09:31:52;;;;;;;;;;;;;;;20.55;43.99;96278.81;4880873;29;20015;-74
2022/04/13 09:34:18;;;;;;;;;;;;;;;20.59;44.38;96285.19;4892751;29;19965;-75
2022/04/13 09:36:44;;;;;;;;;;;;;;;20.63;43.07;96275.56;4875029;29;20070;-75
2022/04/13 09:39:11;;;;;;;;;;;;;;;20.67;43.35;96273.91;4895190;29;19967;-75
2022/04/13 09:41:38;;;;;;;;;;;;;;;20.79;42.87;96266.28;4893151;29;19955;-76
2022/04/13 09:44:13;;;;;;;;;;;;;;;20.93;40.05;96255.69;4892497;29;19956;-76
2022/04/13 09:46:40;;;;;;;;;;;;;;;21.05;39.03;96266.69;4886529;29;20332;-76
2022/04/13 09:49:08;;;;;;;;;;;;;;;21.13;39.43;96264.47;4892728;29;19969;-76
2022/04/13 09:51:36;;;;;;;;;;;;;;;21.26;40.25;96264.53;4893362;29;20392;-75
2022/04/13 09:54:06;;;;;;;;;;;;;;;21.41;39.77;96265.38;4892173;29;19959;-75
2022/04/13 09:56:32;;;;;;;;;;;;;;;21.54;39.07;96267.31;4891255;29;20434;-75
2022/04/13 09:58:58;;;;;;;;;;;;;;;21.67;38.98;96260.41;4892825;29;20053;-75
2022/04/13 10:01:24;;;;;;;;;;;;;;;21.75;37.11;96257.06;4891029;29;20027;-76
2022/04/13 10:03:54;;;;;;;;;;;;;;;21.88;38.22;96256.31;4892575;29;19969;-75
2022/04/13 10:06:28;;;;;;;;;;;;;;;22.00;38.15;96255.03;4892332;29;19987;-75
2022/04/13 10:08:58;;;;;;;;;;;;;;;22.06;38.21;96254.63;4895471;29;19962;-75
2022/04/13 10:11:24;;;;;;;;;;;;;;;22.13;38.47;96269.47;4893652;29;20322;-75
2022/04/13 10:13:50;;;;;;;;;;;;;;;22.21;38.53;96271.47;4892432;29;20014;-79
2022/04/13 10:16:16;;;;;;;;;;;;;;;22.33;36.49;96260.31;4888485;29;20516;-79
2022/04/13 10:18:54;;;;;;;;;;;;;;;22.43;39.38;96270.81;4891211;29;19972;-79
2022/04/13 10:21:49;;;;;;;;;;;;;;;22.52;37.62;96269.00;4893489;29;19953;-79
2022/04/13 10:24:18;;;;;;;;;;;;;;;22.66;37.37;96266.31;4876994;29;19960;-80
2022/04/13 10:26:58;;;;;;;;;;;;;;;22.80;36.68;96263.59;4885979;29;19964;-79
2022/04/13 10:29:26;;;;;;;;;;;;;;;22.81;37.01;96265.97;4889214;29;19965;-78
2022/04/13 10:32:03;;;;;;;;;;;;;;;22.87;36.64;96262.13;4892341;29;19961;-79
2022/04/13 10:34:30;;;;;;;;;;;;;;;22.97;38.95;96273.66;4895567;29;19957;-79
2022/04/13 10:36:56;;;;;;;;;;;;;;;23.00;36.32;96255.13;4882595;29;19967;-79
2022/04/13 10:39:22;;;;;;;;;;;;;;;23.06;34.88;96255.84;4892727;29;19968;-79
2022/04/13 10:41:48;;;;;;;;;;;;;;;23.18;35.60;96252.63;4885198;29;19956;-79
2022/04/13 10:44:23;;;;;;;;;;;;;;;23.25;34.26;96247.66;4875440;29;20349;-78
2022/04/13 10:46:52;;;;;;;;;;;;;;;23.26;35.48;96255.34;4875537;29;20437;-79
2022/04/13 10:49:21;;;;;;;;;;;;;;;23.29;33.62;96249.41;4890616;29;19958;-79
2022/04/13 10:51:49;;;;;;;;;;;;;;;23.40;36.04;96259.88;4894506;29;19958;-79
2022/04/13 10:54:17;;;;;;;;;;;;;;;23.48;34.34;96261.81;4890877;29;20453;-78
2022/04/13 10:56:49;;;;;;;;;;;;;;;23.55;34.92;96262.16;4894618;29;19968;-78
2022/04/13 10:59:32;;;;;;;;;;;;;;;23.69;35.28;96257.53;4892079;29;20436;-79
2022/04/13 11:02:02;;;;;;;;;;;;;;;23.89;35.27;96253.53;4886276;29;19992;-79
2022/04/13 11:04:31;;;;;;;;;;;;;;;23.99;33.54;96251.72;4890229;29;19969;-79
2022/04/13 11:06:57;;;;;;;;;;;;;;;24.06;34.27;96255.50;4899857;29;19990;-78
2022/04/13 11:09:26;;;;;;;;;;;;;;;24.14;34.52;96259.31;4895470;29;19961;-78
2022/04/13 11:11:53;;;;;;;;;;;;;;;24.32;34.62;96249.47;4895321;29;19956;-80
2022/04/13 11:14:20;;;;;;;;;;;;;;;24.36;32.45;96247.75;4883201;29;20417;-79
2022/04/13 11:16:46;;;;;;;;;;;;;;;24.48;33.23;96247.94;4889801;29;19986;-79
2022/04/13 11:19:12;;;;;;;;;;;;;;;24.58;32.67;96251.44;4888559;29;19961;-80
2022/04/13 11:21:50;;;;;;;;;;;;;;;24.56;32.03;96246.38;4900534;29;19960;-78
2022/04/13 11:24:36;;;;;;;;;;;;;;;24.68;33.12;96257.28;4888811;29;19970;-79
2022/04/13 11:27:02;;;;;;;;;;;;;;;24.70;32.71;96255.09;4886233;29;20417;-79
2022/04/13 11:29:44;;;;;;;;;;;;;;;24.74;32.92;96246.41;4895676;29;19967;-79
2022/04/13 11:32:11;;;;;;;;;;;;;;;24.79;32.20;96255.09;4889001;29;19962;-79
2022/04/13 11:34:50;;;;;;;;;;;;;;;24.74;32.32;96254.44;4872749;29;19954;-79
2022/04/13 11:37:18;;;;;;;;;;;;;;;24.68;31.83;96253.84;4890493;29;20348;-79
2022/04/13 11:39:44;;;;;;;;;;;;;;;24.73;32.51;96242.16;4899532;29;19969;-79
2022/04/13 11:42:13;;;;;;;;;;;;;;;24.79;31.74;96248.94;4898415;29;19955;-79
2022/04/13 11:44:46;;;;;;;;;;;;;;;24.94;31.11;96253.06;4900234;29;20402;-79
2022/04/13 11:47:13;;;;;;;;;;;;;;;24.98;31.01;96244.06;4892777;29;19960;-79
2022/04/13 11:49:53;;;;;;;;;;;;;;;25.00;31.21;96246.44;4890620;29;19959;-78
2022/04/13 11:52:37;;;;;;;;;;;;;;;25.05;32.67;96244.41;4890040;29;20320;-79
2022/04/13 11:55:13;;;;;;;;;;;;;;;25.15;31.66;96243.25;4885945;29;19955;-78
2022/04/13 11:57:57;;;;;;;;;;;;;;;25.23;31.57;96242.50;4888749;29;19973;-80
2022/04/13 12:00:42;;;;;;;;;;;;;;;25.29;30.01;96240.44;4888237;29;20435;-80
2022/04/13 12:03:18;;;;;;;;;;;;;;;25.40;30.50;96240.91;4891741;29;19960;-79
2022/04/13 12:05:48;;;;;;;;;;;;;;;25.49;30.16;96233.63;4898953;29;20422;-79
2022/04/13 12:08:16;;;;;;;;;;;;;;;25.57;29.30;96232.03;4898289;29;20473;-79
2022/04/13 12:11:01;;;;;;;;;;;;;;;25.54;29.37;96233.47;4890033;29;19962;-79
2022/04/13 12:13:27;;;;;;;;;;;;;;;25.61;30.22;96238.34;4881146;29;19963;-79
2022/04/13 12:15:54;;;;;;;;;;;;;;;25.68;29.61;96235.94;4881242;29;20314;-79
2022/04/13 12:18:21;;;;;;;;;;;;;;;25.80;30.22;96227.22;4893831;29;19998;-80
2022/04/13 12:20:48;;;;;;;;;;;;;;;25.80;29.71;96225.31;4891916;29;19957;-79
2022/04/13 12:23:15;;;;;;;;;;;;;;;25.72;30.42;96224.25;4894239;29;19955;-79
2022/04/13 12:25:42;;;;;;;;;;;;;;;25.79;30.04;96226.44;4891947;29;19959;-80
2022/04/13 12:28:07;;;;;;;;;;;;;;;25.92;29.03;96222.00;4890353;29;19961;-79
2022/04/13 12:30:33;;;;;;;;;;;;;;;25.99;29.94;96229.53;4871744;29;20044;-80
2022/04/13 12:33:10;;;;;;;;;;;;;;;26.05;30.17;96225.56;4864267;29;20307;-79
2022/04/13 12:35:46;;;;;;;;;;;;;;;26.09;29.37;96219.22;4896916;29;19956;-79
2022/04/13 12:38:20;;;;;;;;;;;;;;;26.06;29.85;96224.44;4898340;29;19981;-79
2022/04/13 12:40:45;;;;;;;;;;;;;;;26.07;28.95;96216.06;4880699;29;19971;-79
2022/04/13 12:43:11;;;;;;;;;;;;;;;26.09;30.20;96218.44;4892517;29;19964;-80
2022/04/13 12:45:37;;;;;;;;;;;;;;;26.15;30.05;96225.22;4895096;29;19958;-79
2022/04/13 12:48:08;;;;;;;;;;;;;;;26.18;28.25;96215.72;4890403;29;20014;-80
2022/04/13 12:50:34;;;;;;;;;;;;;;;26.17;28.37;96223.00;4892362;29;19969;-79